createdAt,value
2022-11-05T10:51:20.241Z,100693.75
2022-11-05T10:53:57.378Z,100699.44
2022-11-05T10:56:34.283Z,100699.16
2022-11-05T10:59:06.729Z,100699.84
2022-11-05T11:01:37.844Z,100698.03
2022-11-05T11:04:16.837Z,100693.94
2022-11-05T11:06:50.653Z,100690.09
2022-11-05T11:09:25.357Z,100682.53
2022-11-05T11:12:15.310Z,100687.34
2022-11-05T11:14:43.585Z,100682.91
2022-11-05T11:17:26.582Z,100685.75
2022-11-05T11:20:19.773Z,100687.41
2022-11-05T11:23:00.537Z,100695.88
2022-11-05T11:25:30.331Z,100686.38
2022-11-05T11:28:03.296Z,100687.47
2022-11-05T11:30:31.820Z,100688.66
2022-11-05T11:33:06.841Z,100693.66
2022-11-05T11:35:37.647Z,100674.81
2022-11-05T11:38:07.900Z,100688.56
2022-11-05T11:40:38.335Z,100689.09
2022-11-05T11:43:15.298Z,100690.25
2022-11-05T11:45:48.034Z,100686.09
2022-11-05T11:48:22.481Z,100690.56
2022-11-05T11:50:50.880Z,100686.59
2022-11-05T11:53:35.398Z,100690.06
2022-11-05T11:56:15.941Z,100685.75
2022-11-05T11:58:46.712Z,100691.38
2022-11-05T12:01:46.494Z,100690.88
2022-11-05T12:04:26.161Z,100694.03
2022-11-05T12:07:05.732Z,100694.88
2022-11-05T12:09:51.294Z,100686.25
2022-11-05T12:12:25.705Z,100688.25
2022-11-05T12:14:58.999Z,100688.44
2022-11-05T12:17:36.284Z,100693.88
2022-11-05T12:20:24.286Z,100681.13
2022-11-05T12:23:14.992Z,100688.75
2022-11-05T12:25:49.874Z,100688.19
2022-11-05T12:28:36.091Z,100679.59
2022-11-05T12:31:15.242Z,100687.00
2022-11-05T12:33:52.276Z,100686.16
2022-11-05T12:36:33.669Z,100686.84
2022-11-05T12:39:25.894Z,100685.22
2022-11-05T12:42:02.083Z,100685.91
2022-11-05T12:44:45.356Z,100671.22
2022-11-05T12:47:27.704Z,100664.75
2022-11-05T12:50:11.050Z,100671.69
2022-11-05T12:53:09.523Z,100671.66
2022-11-05T12:55:45.481Z,100667.53
2022-11-05T12:58:22.565Z,100676.16
2022-11-05T13:00:57.068Z,100672.03
2022-11-05T13:03:31.830Z,100664.91
2022-11-05T13:06:06.730Z,100666.91
2022-11-05T13:08:40.840Z,100667.75
2022-11-05T13:11:17.533Z,100671.19
2022-11-05T13:13:55.004Z,100670.72
2022-11-05T13:16:29.442Z,100665.91
2022-11-05T13:19:01.173Z,100671.72
2022-11-05T13:21:30.545Z,100673.19
2022-11-05T13:24:05.045Z,100676.34
2022-11-05T13:26:39.134Z,100673.84
2022-11-05T13:29:14.261Z,100670.69
2022-11-05T13:31:46.418Z,100670.03
2022-11-05T13:34:14.622Z,100656.25
2022-11-05T13:37:07.894Z,100654.75
2022-11-05T13:39:42.557Z,100647.63
2022-11-05T13:42:52.156Z,100652.44
2022-11-05T13:45:48.814Z,100647.59
2022-11-05T13:49:07.209Z,100645.41
2022-11-05T13:53:46.247Z,100650.53
2022-11-05T13:56:27.051Z,100646.72
2022-11-05T13:59:29.196Z,100650.69
2022-11-05T14:01:59.672Z,100661.00
2022-11-05T14:04:32.563Z,100656.34
2022-11-05T14:07:12.689Z,100653.06
2022-11-05T14:09:43.155Z,100659.72
2022-11-05T14:12:22.334Z,100665.69
2022-11-05T14:14:58.482Z,100662.03
2022-11-05T14:17:32.938Z,100652.31
2022-11-05T14:20:27.465Z,100651.81
2022-11-05T14:23:15.692Z,100660.06
2022-11-05T14:26:14.400Z,100660.28
2022-11-05T14:28:47.872Z,100658.63
2022-11-05T14:31:41.088Z,100650.31
2022-11-05T14:34:21.828Z,100655.13
2022-11-05T14:37:03.980Z,100647.34
2022-11-05T14:39:33.556Z,100650.84
2022-11-05T14:42:05.373Z,100650.16
2022-11-05T14:44:36.602Z,100649.00
2022-11-05T14:47:07.075Z,100650.34
2022-11-05T14:49:39.264Z,100653.66
2022-11-05T14:52:10.421Z,100655.16
2022-11-05T14:54:43.921Z,100649.38
2022-11-05T14:57:16.026Z,100658.47
2022-11-05T15:00:01.942Z,100659.13
2022-11-05T15:02:36.191Z,100652.16
2022-11-05T15:05:39.181Z,100652.16
2022-11-05T15:08:30.742Z,100652.16
2022-11-05T15:11:07.659Z,100663.59
2022-11-05T15:13:43.979Z,100658.13
2022-11-05T15:16:20.371Z,100654.63
2022-11-05T15:18:48.390Z,100654.47
2022-11-05T15:21:18.251Z,100660.41
2022-11-05T15:23:48.595Z,100649.81
2022-11-05T15:26:24.477Z,100646.31
2022-11-05T15:28:54.924Z,100647.13
2022-11-05T15:31:31.824Z,100630.50
2022-11-05T15:34:21.786Z,100641.25
2022-11-05T15:36:52.302Z,100639.25
2022-11-05T15:39:40.714Z,100633.94
2022-11-05T15:42:16.356Z,100631.06
2022-11-05T15:44:47.859Z,100627.41
2022-11-05T15:47:18.764Z,100623.72
2022-11-05T15:49:48.825Z,100618.09
2022-11-05T15:52:18.920Z,100621.38
2022-11-05T15:54:47.479Z,100628.13
2022-11-05T15:57:21.882Z,100636.66
2022-11-05T15:59:51.562Z,100636.16
2022-11-05T16:02:26.555Z,100642.91
2022-11-05T16:04:54.665Z,100646.69
2022-11-05T16:07:22.990Z,100641.03
2022-11-05T16:09:56.204Z,100644.13
2022-11-05T16:12:36.513Z,100639.31
2022-11-05T16:15:20.875Z,100653.66
2022-11-05T16:17:52.231Z,100652.19
2022-11-05T16:20:29.857Z,100654.81
2022-11-05T16:22:59.417Z,100647.19
2022-11-05T16:25:38.427Z,100650.13
2022-11-05T16:28:16.729Z,100653.94
2022-11-05T16:30:55.239Z,100657.00
2022-11-05T16:33:23.537Z,100654.69
2022-11-05T16:35:51.853Z,100654.00
2022-11-05T16:38:24.168Z,100654.16
2022-11-05T16:40:51.910Z,100653.50
2022-11-05T16:43:21.812Z,100653.66
2022-11-05T16:45:49.726Z,100650.47
2022-11-05T16:48:18.825Z,100655.91
2022-11-05T16:50:46.999Z,100657.88
2022-11-05T16:53:15.154Z,100666.91
2022-11-05T16:55:44.847Z,100667.91
2022-11-05T16:58:20.591Z,100668.03
2022-11-05T17:00:49.220Z,100671.69
2022-11-05T17:03:18.333Z,100665.56
2022-11-05T17:05:46.454Z,100667.38
2022-11-05T17:08:14.650Z,100661.41
2022-11-05T17:10:42.698Z,100650.03
2022-11-05T17:13:13.811Z,100657.94
2022-11-05T17:15:44.067Z,100662.41
2022-11-05T17:18:17.101Z,100661.72
2022-11-05T17:20:49.986Z,100669.63
2022-11-05T17:23:19.354Z,100666.84
2022-11-05T17:25:49.100Z,100659.91
2022-11-05T17:28:17.791Z,100667.69
2022-11-05T17:30:52.207Z,100666.69
2022-11-05T17:33:21.776Z,100670.16
2022-11-05T17:35:51.357Z,100666.41
2022-11-05T17:38:19.481Z,100663.78
2022-11-05T17:40:47.380Z,100662.94
2022-11-05T17:43:16.337Z,100665.41
2022-11-05T17:45:45.439Z,100670.69
2022-11-05T17:48:13.388Z,100676.78
2022-11-05T17:50:42.877Z,100680.25
2022-11-05T17:53:13.132Z,100680.25
2022-11-05T17:55:42.414Z,100677.63
2022-11-05T17:58:10.223Z,100670.69
2022-11-05T18:00:39.349Z,100672.34
2022-11-05T18:03:07.106Z,100664.59
2022-11-05T18:05:35.581Z,100666.09
2022-11-05T18:08:03.682Z,100666.22
2022-11-05T18:10:33.105Z,100669.72
2022-11-05T18:13:00.794Z,100656.69
2022-11-05T18:15:28.556Z,100651.22
2022-11-05T18:17:56.311Z,100648.28
2022-11-05T18:20:24.177Z,100645.50
2022-11-05T18:22:52.477Z,100645.34
2022-11-05T18:25:20.635Z,100639.91
2022-11-05T18:27:49.721Z,100636.28
2022-11-05T18:30:17.644Z,100645.03
2022-11-05T18:32:46.405Z,100641.28
2022-11-05T18:35:14.746Z,100643.09
2022-11-05T18:37:43.454Z,100645.59
2022-11-05T18:40:12.154Z,100649.84
2022-11-05T18:42:40.340Z,100649.06
2022-11-05T18:45:10.916Z,100645.59
2022-11-05T18:47:38.869Z,100649.19
2022-11-05T18:50:10.397Z,100644.75
2022-11-05T18:52:38.339Z,100659.63
2022-11-05T18:55:07.322Z,100648.88
2022-11-05T18:57:35.361Z,100650.38
2022-11-05T19:00:03.499Z,100641.50
2022-11-05T19:02:33.234Z,100645.09
2022-11-05T19:05:27.311Z,100643.44
2022-11-05T19:07:49.014Z,100644.13
2022-11-05T19:10:16.881Z,100634.41
2022-11-05T19:12:44.693Z,100643.81
2022-11-05T19:15:12.789Z,100639.34
2022-11-05T19:17:41.961Z,100634.91
2022-11-05T19:20:11.518Z,100629.94
2022-11-05T19:22:39.310Z,100633.88
2022-11-05T19:25:08.202Z,100641.13
2022-11-05T19:27:36.809Z,100646.69
2022-11-05T19:30:04.885Z,100645.19
2022-11-05T19:32:32.799Z,100646.16
2022-11-05T19:35:01.990Z,100642.88
2022-11-05T19:37:29.762Z,100648.16
2022-11-05T19:39:57.506Z,100646.50
2022-11-05T19:42:25.258Z,100639.53
2022-11-05T19:44:53.030Z,100629.13
2022-11-05T19:47:20.910Z,100628.44
2022-11-05T19:49:48.676Z,100622.38
2022-11-05T19:52:17.743Z,100631.09
2022-11-05T19:54:46.075Z,100630.28
2022-11-05T19:57:14.185Z,100635.56
2022-11-05T19:59:41.863Z,100638.22
2022-11-05T20:02:15.930Z,100641.66
2022-11-05T20:04:44.146Z,100643.16
2022-11-05T20:07:11.962Z,100647.47
2022-11-05T20:09:41.284Z,100645.66
2022-11-05T20:12:09.132Z,100647.47
2022-11-05T20:14:37.007Z,100655.75
2022-11-05T20:17:04.891Z,100655.47
2022-11-05T20:19:33.526Z,100650.69
2022-11-05T20:22:01.604Z,100647.75
2022-11-05T20:24:29.448Z,100641.50
2022-11-05T20:26:58.562Z,100649.09
2022-11-05T20:29:33.687Z,100648.09
2022-11-05T20:32:03.360Z,100646.31
2022-11-05T20:34:32.301Z,100643.81
2022-11-05T20:37:00.282Z,100640.38
2022-11-05T20:39:29.146Z,100639.53
2022-11-05T20:42:00.404Z,100633.72
2022-11-05T20:44:28.264Z,100635.66
2022-11-05T20:46:56.772Z,100643.78
2022-11-05T20:49:25.871Z,100644.22
2022-11-05T20:51:54.047Z,100644.69
2022-11-05T20:54:22.038Z,100649.41
2022-11-05T20:56:49.950Z,100642.81
2022-11-05T20:59:19.423Z,100643.09
2022-11-05T21:01:47.197Z,100651.47
2022-11-05T21:04:14.999Z,100651.06
2022-11-05T21:06:42.804Z,100656.00
2022-11-05T21:09:10.562Z,100663.41
2022-11-05T21:11:52.346Z,100657.56
2022-11-05T21:14:21.446Z,100656.22
2022-11-05T21:16:49.117Z,100664.28
2022-11-05T21:19:16.946Z,100657.19
2022-11-05T21:21:44.614Z,100653.41
2022-11-05T21:24:12.365Z,100655.63
2022-11-05T21:26:40.098Z,100650.84
2022-11-05T21:29:08.707Z,100654.72
2022-11-05T21:31:38.685Z,100653.56
2022-11-05T21:34:06.593Z,100658.41
2022-11-05T21:36:34.460Z,100657.25
2022-11-05T21:39:02.430Z,100656.97
2022-11-05T21:41:30.204Z,100658.31
2022-11-05T21:43:58.120Z,100656.38
2022-11-05T21:46:25.953Z,100651.78
2022-11-05T21:48:55.132Z,100662.84
2022-11-05T21:51:40.301Z,100650.31
2022-11-05T21:54:25.448Z,100655.31
2022-11-05T21:57:11.140Z,100656.66
2022-11-05T21:59:52.856Z,100647.91
2022-11-05T22:02:23.041Z,100644.13
2022-11-05T22:04:53.958Z,100643.00
2022-11-05T22:07:24.767Z,100635.09
2022-11-05T22:09:52.942Z,100624.34
2022-11-05T22:12:22.647Z,100616.59
2022-11-05T22:14:50.384Z,100620.03
2022-11-05T22:17:18.656Z,100619.91
2022-11-05T22:19:46.635Z,100611.13
2022-11-05T22:22:15.853Z,100599.59
2022-11-05T22:24:44.490Z,100584.59
2022-11-05T22:27:14.134Z,100595.81
2022-11-05T22:29:42.210Z,100594.84
2022-11-05T22:32:11.557Z,100602.78
2022-11-05T22:34:39.294Z,100602.78
2022-11-05T22:37:07.169Z,100597.63
2022-11-05T22:39:36.261Z,100595.00
2022-11-05T22:42:08.248Z,100603.06
2022-11-05T22:44:36.932Z,100604.88
2022-11-05T22:47:05.414Z,100601.56
2022-11-05T22:49:33.588Z,100600.75
2022-11-05T22:52:01.384Z,100603.41
2022-11-05T22:54:29.241Z,100600.06
2022-11-05T22:56:58.477Z,100610.63
2022-11-05T22:59:26.369Z,100614.25
2022-11-05T23:01:54.217Z,100607.00
2022-11-05T23:04:22.038Z,100596.59
2022-11-05T23:07:07.218Z,100605.34
2022-11-05T23:09:53.476Z,100598.56
2022-11-05T23:12:27.112Z,100606.47
2022-11-05T23:14:56.685Z,100600.22
2022-11-05T23:17:42.322Z,100601.19
2022-11-05T23:20:31.823Z,100592.31
2022-11-05T23:23:17.229Z,100576.31
2022-11-05T23:25:45.452Z,100566.59
2022-11-05T23:28:15.320Z,100568.88
2022-11-05T23:30:59.238Z,100573.19
2022-11-05T23:33:27.193Z,100571.38
2022-11-05T23:36:12.804Z,100565.81
2022-11-05T23:38:40.679Z,100562.97
2022-11-05T23:41:26.421Z,100568.25
2022-11-05T23:44:13.385Z,100574.22
2022-11-05T23:46:58.504Z,100569.78
2022-11-05T23:49:26.570Z,100567.81
2022-11-05T23:51:54.312Z,100560.03
2022-11-05T23:54:22.468Z,100548.50
2022-11-05T23:56:50.209Z,100561.69
2022-11-05T23:59:19.529Z,100555.44
